.
WxDataArchive / Data Records for 2010-09-17
2010-09-16 September 2010 2010-09-18

Data Records for Friday, 17 September 2010

Time	Temp	Chill	HIndex	Humid	Dewpt	 Wind 	HiWind	WindDir	Rain 	Barom 
-----	----	-----	------	-----	-----	------	------	-------	-----	----- 
00:00	58.4	58.4	58.4	89	55.2	0	2	270	0.00	29.991 
00:05	58.3	58.3	58.3	88	54.8	0	1	270	0.00	29.991 
00:10	58.3	58.3	58.3	88	54.8	0	2	270	0.00	29.991 
00:15	58.3	58.3	58.3	88	54.8	0	0	---	0.00	29.995 
00:20	58.3	58.3	58.3	88	54.8	0	1	270	0.00	29.995 
00:25	58.3	58.3	58.3	88	54.8	0	1	270	0.00	29.995 
00:30	58.1	58.1	58.1	88	54.6	0	0	---	0.00	29.992 
00:35	58.1	58.1	58.1	88	54.6	0	1	270	0.00	29.992 
00:40	58.1	58.1	58.1	88	54.6	0	0	---	0.00	29.992 
00:45	58.0	58.0	58.0	87	54.1	0	1	270	0.00	29.993 
00:50	58.0	58.0	58.0	87	54.1	0	1	270	0.00	29.993 
00:55	58.1	58.1	58.1	87	54.2	0	1	270	0.00	29.993 
01:00	58.0	58.0	58.0	87	54.1	0	3	90	0.00	29.993 
01:05	58.1	58.1	58.1	87	54.2	0	1	90	0.00	29.993 
01:10	58.1	58.1	58.1	87	54.2	0	0	---	0.00	29.993 
01:15	58.0	58.0	58.0	87	54.1	0	0	---	0.00	29.999 
01:20	58.0	58.0	58.0	87	54.1	0	1	90	0.00	29.999 
01:25	58.0	58.0	58.0	87	54.1	0	0	---	0.00	29.999 
01:30	58.0	58.0	58.0	87	54.1	0	0	---	0.00	30.010 
01:35	58.0	58.0	58.0	86	53.8	0	0	---	0.00	30.010 
01:40	58.0	58.0	58.0	86	53.8	0	0	---	0.00	30.010 
01:45	58.0	58.0	58.0	86	53.8	0	0	---	0.00	30.012 
01:50	58.0	58.0	58.0	86	53.8	0	0	---	0.00	30.012 
01:55	58.0	58.0	58.0	86	53.8	0	2	90	0.00	30.012 
02:00	57.8	57.8	57.8	85	53.3	0	2	90	0.00	30.015 
02:05	57.8	57.8	57.8	85	53.3	0	1	90	0.00	30.015 
02:10	57.8	57.8	57.8	85	53.3	0	0	---	0.00	30.015 
02:15	57.8	57.8	57.8	85	53.3	0	1	90	0.00	30.022 
02:20	57.8	57.8	57.8	85	53.3	0	1	90	0.00	30.022 
02:25	57.6	57.6	57.6	84	52.8	0	2	90	0.00	30.022 
02:30	57.8	57.8	57.8	84	53.0	0	1	90	0.00	30.027 
02:35	57.8	57.8	57.8	85	53.3	0	0	---	0.00	30.027 
02:40	57.6	57.6	57.6	85	53.1	0	0	---	0.00	30.027 
02:45	57.6	57.6	57.6	85	53.1	0	0	---	0.00	30.031 
02:50	57.6	57.6	57.6	85	53.1	0	0	---	0.00	30.031 
02:55	57.6	57.6	57.6	85	53.1	0	0	---	0.00	30.031 
03:00	57.5	57.5	57.5	85	53.0	0	0	---	0.00	30.035 
03:05	57.5	57.5	57.5	85	53.0	0	0	---	0.00	30.035 
03:10	57.5	57.5	57.5	85	53.0	0	1	90	0.00	30.035 
03:15	57.5	57.5	57.5	85	53.0	0	1	90	0.00	30.035 
03:20	57.5	57.5	57.5	85	53.0	0	0	---	0.00	30.035 
03:25	57.5	57.5	57.5	85	53.0	0	1	90	0.00	30.035 
03:30	57.5	57.5	57.5	84	52.7	0	3	90	0.00	30.040 
03:35	57.5	57.5	57.5	84	52.7	0	0	---	0.00	30.040 
03:40	57.5	57.5	57.5	84	52.7	0	0	---	0.00	30.040 
03:45	57.5	57.5	57.5	84	52.7	0	1	90	0.00	30.041 
03:50	57.3	57.3	57.3	84	52.5	0	0	---	0.00	30.041 
03:55	57.3	57.3	57.3	84	52.5	0	1	90	0.00	30.041 
04:00	57.3	57.3	57.3	84	52.5	0	1	90	0.00	30.046 
04:05	57.2	57.2	57.2	84	52.4	0	2	90	0.00	30.046 
04:10	57.2	57.2	57.2	84	52.4	0	1	90	0.00	30.046 
04:15	57.2	57.2	57.2	84	52.4	0	1	90	0.00	30.047 
04:20	57.2	57.2	57.2	84	52.4	0	1	90	0.00	30.047 
04:25	57.2	57.2	57.2	85	52.7	0	0	---	0.00	30.047 
04:30	57.0	57.0	57.0	85	52.5	0	2	90	0.00	30.047 
04:35	57.0	57.0	57.0	85	52.5	0	1	90	0.00	30.047 
04:40	57.0	57.0	57.0	85	52.5	0	1	90	0.00	30.047 
04:45	56.9	56.9	56.9	86	52.8	0	1	90	0.00	30.048 
04:50	56.9	56.9	56.9	86	52.8	0	1	90	0.00	30.048 
04:55	56.9	56.9	56.9	86	52.8	0	1	90	0.00	30.048 
05:00	56.7	56.7	56.7	86	52.6	0	2	90	0.00	30.051 
05:05	56.6	56.6	56.6	86	52.5	0	1	90	0.00	30.051 
05:10	56.6	56.6	56.6	86	52.5	0	1	90	0.00	30.051 
05:15	56.5	56.5	56.5	86	52.4	0	1	90	0.00	30.055 
05:20	56.3	56.3	56.3	86	52.2	0	1	90	0.00	30.055 
05:25	56.3	56.3	56.3	86	52.2	0	0	---	0.00	30.055 
05:30	56.2	56.2	56.2	86	52.1	0	1	90	0.00	30.055 
05:35	56.0	56.0	56.0	86	51.9	0	0	---	0.00	30.055 
05:40	55.9	55.9	55.9	87	52.1	0	0	---	0.00	30.055 
05:45	55.7	55.7	55.7	87	51.9	0	0	---	0.00	30.068 
05:50	55.6	55.6	55.6	87	51.8	0	0	---	0.00	30.068 
05:55	55.4	55.4	55.4	87	51.6	0	0	---	0.00	30.068 
06:00	55.4	55.4	55.4	87	51.6	0	0	---	0.00	30.074 
06:05	55.3	55.3	55.3	88	51.8	0	0	---	0.00	30.074 
06:10	55.3	55.3	55.3	88	51.8	0	0	---	0.00	30.074 
06:15	55.1	55.1	55.1	88	51.6	0	0	---	0.00	30.078 
06:20	55.1	55.1	55.1	88	51.6	0	0	---	0.00	30.078 
06:25	55.1	55.1	55.1	88	51.6	0	0	---	0.00	30.078 
06:30	55.1	55.1	55.1	88	51.6	0	0	---	0.00	30.086 
06:35	55.1	55.1	55.1	88	51.6	0	1	90	0.00	30.086 
06:40	55.1	55.1	55.1	88	51.6	0	0	---	0.00	30.086 
06:45	55.1	55.1	55.1	88	51.6	0	0	---	0.00	30.088 
06:50	55.0	55.0	55.0	88	51.5	0	0	---	0.00	30.088 
06:55	54.8	54.8	54.8	88	51.3	0	0	---	0.00	30.088 
07:00	54.7	54.7	54.7	88	51.2	0	0	---	0.00	30.097 
07:05	54.5	54.5	54.5	88	51.0	0	0	---	0.00	30.097 
07:10	54.2	54.2	54.2	88	50.7	0	0	---	0.00	30.097 
07:15	53.9	53.9	53.9	89	50.7	0	0	---	0.00	30.098 
07:20	53.6	53.6	53.6	89	50.4	0	0	---	0.00	30.098 
07:25	53.3	53.3	53.3	89	50.1	0	0	---	0.00	30.098 
07:30	53.1	53.1	53.1	89	49.9	0	0	---	0.00	30.105 
07:35	52.9	52.9	52.9	90	50.0	0	0	---	0.00	30.105 
07:40	52.6	52.6	52.6	90	49.7	0	0	---	0.00	30.105 
07:45	52.5	52.5	52.5	91	49.9	0	0	---	0.00	30.103 
07:50	52.3	52.3	52.3	91	49.8	0	0	---	0.00	30.103 
07:55	52.5	52.5	52.5	91	49.9	0	0	---	0.00	30.103 
08:00	52.6	52.6	52.6	92	50.3	0	0	---	0.00	30.117 
08:05	52.8	52.8	52.8	92	50.5	0	1	90	0.00	30.117 
08:10	53.2	53.2	53.2	93	51.2	0	1	90	0.00	30.117 
08:15	53.6	53.6	53.6	93	51.6	0	1	90	0.00	30.121 
08:20	54.1	54.1	54.1	93	52.1	0	0	---	0.00	30.121 
08:25	54.5	54.5	54.5	93	52.5	0	0	---	0.00	30.121 
08:30	54.7	54.7	54.7	93	52.7	0	0	---	0.00	30.127 
08:35	54.8	54.8	54.8	92	52.5	0	1	90	0.00	30.127 
08:40	55.0	55.0	55.0	92	52.7	0	0	---	0.00	30.127 
08:45	55.1	55.1	55.1	92	52.8	0	1	90	0.00	30.130 
08:50	55.3	55.3	55.3	91	52.7	0	1	90	0.00	30.130 
08:55	55.4	55.4	55.4	90	52.5	0	0	---	0.00	30.130 
09:00	55.6	55.6	55.6	89	52.4	0	0	---	0.00	30.129 
09:05	55.7	55.7	55.7	89	52.5	0	0	---	0.00	30.129 
09:10	55.9	55.9	55.9	88	52.4	0	0	---	0.00	30.129 
09:15	56.0	56.0	56.0	87	52.2	0	0	---	0.00	30.133 
09:20	56.3	56.3	56.3	86	52.2	0	1	90	0.00	30.133 
09:25	56.6	56.6	56.6	85	52.1	0	1	90	0.00	30.133 
09:30	57.0	57.0	57.0	84	52.2	0	0	---	0.00	30.132 
09:35	57.2	57.2	57.2	82	51.8	0	0	---	0.00	30.132 
09:40	57.8	57.8	57.8	82	52.3	0	1	90	0.00	30.132 
09:45	58.1	58.1	58.1	81	52.3	0	1	90	0.00	30.138 
09:50	58.6	58.6	58.6	79	52.1	0	3	90	0.00	30.138 
09:55	58.7	58.7	58.7	77	51.5	0	3	90	0.00	30.138 
10:00	58.7	58.7	58.7	75	50.8	0	3	90	0.00	30.141 
10:05	59.0	59.0	59.0	73	50.4	1	4	90	0.00	30.141 
10:10	59.3	59.3	59.3	73	50.6	0	0	---	0.00	30.141 
10:15	59.6	59.6	59.6	72	50.6	0	1	90	0.00	30.152 
10:20	59.6	59.6	59.6	72	50.6	0	2	90	0.00	30.152 
10:25	60.1	60.1	60.1	73	51.4	0	1	90	0.00	30.152 
10:30	60.2	60.2	60.2	71	50.8	1	3	90	0.00	30.155 
10:35	60.5	60.5	60.5	70	50.7	0	4	90	0.00	30.155 
10:40	60.9	60.9	60.9	71	51.4	0	1	90	0.00	30.155 
10:45	61.3	61.3	61.3	69	51.0	0	1	90	0.00	30.156 
10:50	62.1	62.1	62.1	68	51.4	0	1	90	0.00	30.156 
10:55	62.6	62.6	62.6	65	50.7	0	3	90	0.00	30.156 
11:00	62.6	62.6	62.6	61	49.0	0	2	90	0.00	30.159 
11:05	63.2	63.2	63.2	61	49.5	0	2	90	0.00	30.159 
11:10	63.9	63.9	63.9	60	49.7	0	1	90	0.00	30.159 
11:15	63.7	63.7	63.7	59	49.1	0	1	90	0.00	30.162 
11:20	63.5	63.5	63.5	58	48.5	0	1	90	0.00	30.162 
11:25	63.1	63.1	63.1	59	48.5	1	3	90	0.00	30.162 
11:30	62.6	62.6	62.6	62	49.4	0	3	90	0.00	30.162 
11:35	62.3	62.3	62.3	62	49.1	0	1	90	0.00	30.162 
11:40	62.3	62.3	62.3	62	49.1	0	3	90	0.00	30.162 
11:45	62.3	62.3	62.3	62	49.1	0	1	315	0.00	30.161 
11:50	62.7	62.7	62.7	62	49.5	0	3	90	0.00	30.161 
11:55	63.1	63.1	63.1	62	49.9	0	3	90	0.00	30.161 
12:00	63.1	63.1	63.1	59	48.5	0	2	90	0.00	30.159 
12:05	63.2	63.2	63.2	59	48.6	1	3	248	0.00	30.159 
12:10	63.5	63.5	63.5	59	48.9	0	2	338	0.00	30.159 
12:15	63.4	63.4	63.4	58	48.4	1	3	315	0.00	30.156 
12:20	63.2	63.2	63.2	58	48.2	0	1	315	0.00	30.156 
12:25	63.2	63.2	63.2	58	48.2	0	2	0	0.00	30.156 
12:30	63.5	63.5	63.5	57	48.0	0	1	0	0.00	30.162 
12:35	63.5	63.5	63.5	57	48.0	0	1	0	0.00	30.162 
12:40	63.7	63.7	63.7	56	47.7	0	1	0	0.00	30.162 
12:45	64.2	64.2	64.2	58	49.1	0	1	0	0.00	30.161 
12:50	64.5	64.5	64.5	56	48.4	1	2	0	0.00	30.161 
12:55	64.7	64.7	64.7	53	47.2	1	3	338	0.00	30.161 
13:00	65.0	65.0	65.0	58	49.9	0	3	338	0.00	30.159 
13:05	65.6	65.6	65.6	54	48.5	0	3	270	0.00	30.159 
13:10	65.3	65.3	65.3	54	48.2	0	2	270	0.00	30.159 
13:15	65.0	65.0	65.0	55	48.4	0	1	0	0.00	30.165 
13:20	64.8	64.8	64.8	54	47.8	0	1	0	0.00	30.165 
13:25	64.7	64.7	64.7	53	47.2	1	4	90	0.00	30.165 
13:30	65.2	65.2	65.2	53	47.6	1	4	90	0.00	30.159 
13:35	66.0	66.0	66.0	53	48.4	1	4	90	0.00	30.159 
13:40	66.8	66.8	66.8	52	48.6	1	4	112	0.00	30.159 
13:45	67.3	67.3	67.3	51	48.5	1	2	315	0.00	30.151 
13:50	67.1	67.1	67.1	50	47.8	1	4	315	0.00	30.151 
13:55	67.4	67.4	67.4	52	49.2	1	5	90	0.00	30.151 
14:00	67.4	67.4	67.4	50	48.1	0	2	90	0.00	30.146 
14:05	67.4	67.4	67.4	51	48.6	1	2	90	0.00	30.146 
14:10	67.4	67.4	67.4	51	48.6	2	5	90	0.00	30.146 
14:15	67.8	67.8	67.8	52	49.5	1	5	90	0.00	30.147 
14:20	68.4	68.4	68.4	50	49.0	1	4	315	0.00	30.147 
14:25	68.4	68.4	68.4	47	47.4	1	4	270	0.00	30.147 
14:30	68.8	68.8	68.8	46	47.2	0	2	225	0.00	30.142 
14:35	68.9	68.9	68.9	50	49.5	0	2	225	0.00	30.142 
14:40	69.1	69.1	69.1	49	49.1	0	3	112	0.00	30.142 
14:45	69.4	69.4	69.4	50	49.9	1	4	112	0.00	30.139 
14:50	69.6	69.6	69.6	50	50.1	1	4	90	0.00	30.139 
14:55	69.3	69.3	69.3	48	48.8	1	4	90	0.00	30.139 
15:00	68.9	68.9	68.9	49	48.9	1	3	90	0.00	30.139 
15:05	68.8	68.8	68.8	49	48.8	1	4	90	0.00	30.139 
15:10	68.3	68.3	68.3	48	47.8	1	3	90	0.00	30.139 
15:15	67.8	67.8	67.8	50	48.5	1	5	90	0.00	30.132 
15:20	67.9	67.9	67.9	51	49.1	2	5	112	0.00	30.132 
15:25	67.9	67.9	67.9	50	48.6	2	4	112	0.00	30.132 
15:30	68.1	68.1	68.1	51	49.3	0	3	90	0.00	30.128 
15:35	68.4	68.4	68.4	51	49.6	0	2	90	0.00	30.128 
15:40	68.9	68.9	68.9	48	48.4	0	1	90	0.00	30.128 
15:45	68.9	68.9	68.9	47	47.8	1	5	90	0.00	30.123 
15:50	68.9	68.9	68.9	49	48.9	1	4	90	0.00	30.123 
15:55	68.9	68.9	68.9	46	47.3	1	2	90	0.00	30.123 
16:00	68.9	68.9	68.9	48	48.4	1	4	90	0.00	30.110 
16:05	68.8	68.8	68.8	46	47.2	1	5	45	0.00	30.110 
16:10	68.8	68.8	68.8	46	47.2	1	3	112	0.00	30.110 
16:15	68.9	68.9	68.9	46	47.3	1	3	112	0.00	30.108 
16:20	68.9	68.9	68.9	46	47.3	0	1	112	0.00	30.108 
16:25	69.1	69.1	69.1	47	48.0	0	1	112	0.00	30.108 
16:30	69.3	69.3	69.3	48	48.8	0	1	112	0.00	30.103 
16:35	69.3	69.3	69.3	48	48.8	0	2	112	0.00	30.103 
16:40	69.3	69.3	69.3	48	48.8	0	2	112	0.00	30.103 
16:45	69.3	69.3	69.3	46	47.6	0	1	112	0.00	30.106 
16:50	69.1	69.1	69.1	47	48.0	0	1	112	0.00	30.106 
16:55	69.3	69.3	69.3	48	48.8	0	3	112	0.00	30.106 
17:00	69.3	69.3	69.3	47	48.2	0	2	112	0.00	30.110 
17:05	69.1	69.1	69.1	46	47.4	0	2	112	0.00	30.110 
17:10	69.1	69.1	69.1	47	48.0	0	3	112	0.00	30.110 
17:15	68.9	68.9	68.9	47	47.8	0	3	112	0.00	30.111 
17:20	68.8	68.8	68.8	47	47.7	1	4	112	0.00	30.111 
17:25	68.8	68.8	68.8	47	47.7	1	3	112	0.00	30.111 
17:30	68.8	68.8	68.8	47	47.7	1	5	90	0.00	30.109 
17:35	68.8	68.8	68.8	48	48.3	1	3	90	0.00	30.109 
17:40	68.8	68.8	68.8	47	47.7	1	4	90	0.00	30.109 
17:45	68.8	68.8	68.8	47	47.7	0	1	90	0.00	30.109 
17:50	68.8	68.8	68.8	47	47.7	1	4	90	0.00	30.109 
17:55	68.8	68.8	68.8	47	47.7	0	2	90	0.00	30.109 
18:00	68.9	68.9	68.9	48	48.4	1	3	90	0.00	30.102 
18:05	68.8	68.8	68.8	47	47.7	1	3	90	0.00	30.102 
18:10	68.8	68.8	68.8	48	48.3	0	3	90	0.00	30.102 
18:15	68.6	68.6	68.6	47	47.6	0	2	90	0.00	30.109 
18:20	68.8	68.8	68.8	48	48.3	0	1	90	0.00	30.109 
18:25	68.8	68.8	68.8	47	47.7	0	0	---	0.00	30.109 
18:30	68.6	68.6	68.6	47	47.6	0	1	90	0.00	30.112 
18:35	68.6	68.6	68.6	48	48.1	0	0	---	0.00	30.112 
18:40	68.4	68.4	68.4	49	48.5	0	0	---	0.00	30.112 
18:45	68.3	68.3	68.3	49	48.4	0	1	90	0.00	30.110 
18:50	68.3	68.3	68.3	49	48.4	0	1	90	0.00	30.110 
18:55	68.1	68.1	68.1	49	48.2	0	1	90	0.00	30.110 
19:00	67.9	67.9	67.9	50	48.6	0	3	90	0.00	30.102 
19:05	67.8	67.8	67.8	50	48.5	0	1	90	0.00	30.102 
19:10	67.6	67.6	67.6	50	48.3	0	2	90	0.00	30.102 
19:15	67.4	67.4	67.4	50	48.1	0	2	90	0.00	30.097 
19:20	67.3	67.3	67.3	51	48.5	0	1	90	0.00	30.097 
19:25	67.1	67.1	67.1	52	48.9	0	1	90	0.00	30.097 
19:30	66.8	66.8	66.8	51	48.1	0	0	---	0.00	30.089 
19:35	66.6	66.6	66.6	52	48.4	0	0	---	0.00	30.089 
19:40	66.3	66.3	66.3	53	48.6	0	0	---	0.00	30.089 
19:45	66.0	66.0	66.0	54	48.9	0	0	---	0.00	30.096 
19:50	65.6	65.6	65.6	56	49.5	0	0	---	0.00	30.096 
19:55	65.2	65.2	65.2	56	49.1	0	0	---	0.00	30.096 
20:00	64.7	64.7	64.7	58	49.6	0	0	---	0.00	30.096 
20:05	64.2	64.2	64.2	58	49.1	0	0	---	0.00	30.096 
20:10	63.7	63.7	63.7	60	49.5	0	0	---	0.00	30.096 
20:15	63.2	63.2	63.2	62	50.0	0	0	---	0.00	30.096 
20:20	62.7	62.7	62.7	63	49.9	0	0	---	0.00	30.096 
20:25	62.3	62.3	62.3	63	49.5	0	0	---	0.00	30.096 
20:30	61.8	61.8	61.8	64	49.5	0	0	---	0.00	30.097 
20:35	61.3	61.3	61.3	66	49.8	0	0	---	0.00	30.097 
20:40	61.0	61.0	61.0	67	50.0	0	0	---	0.00	30.097 
20:45	60.7	60.7	60.7	68	50.1	0	0	---	0.00	30.101 
20:50	60.4	60.4	60.4	69	50.2	0	0	---	0.00	30.101 
20:55	59.9	59.9	59.9	69	49.7	0	0	---	0.00	30.101 
21:00	59.8	59.8	59.8	71	50.4	0	0	---	0.00	30.106 
21:05	59.5	59.5	59.5	70	49.7	0	0	---	0.00	30.106 
21:10	59.2	59.2	59.2	72	50.2	0	0	---	0.00	30.106 
21:15	58.9	58.9	58.9	73	50.3	0	0	---	0.00	30.109 
21:20	58.6	58.6	58.6	72	49.6	0	0	---	0.00	30.109 
21:25	58.3	58.3	58.3	72	49.3	0	0	---	0.00	30.109 
21:30	58.1	58.1	58.1	72	49.1	0	0	---	0.00	30.114 
21:35	58.0	58.0	58.0	73	49.4	0	0	---	0.00	30.114 
21:40	57.8	57.8	57.8	74	49.6	0	0	---	0.00	30.114 
21:45	57.6	57.6	57.6	76	50.1	0	0	---	0.00	30.118 
21:50	57.6	57.6	57.6	77	50.4	0	0	---	0.00	30.118 
21:55	57.5	57.5	57.5	78	50.7	0	0	---	0.00	30.118 
22:00	57.5	57.5	57.5	79	51.0	0	0	---	0.00	30.126 
22:05	57.3	57.3	57.3	80	51.2	0	0	---	0.00	30.126 
22:10	57.2	57.2	57.2	80	51.1	0	0	---	0.00	30.126 
22:15	57.0	57.0	57.0	81	51.2	0	0	---	0.00	30.127 
22:20	56.9	56.9	56.9	81	51.1	0	0	---	0.00	30.127 
22:25	56.7	56.7	56.7	81	50.9	0	0	---	0.00	30.127 
22:30	56.5	56.5	56.5	82	51.1	0	0	---	0.00	30.127 
22:35	56.3	56.3	56.3	83	51.2	0	0	---	0.00	30.127 
22:40	56.3	56.3	56.3	83	51.2	0	0	---	0.00	30.127 
22:45	56.2	56.2	56.2	83	51.1	0	0	---	0.00	30.132 
22:50	56.0	56.0	56.0	83	50.9	0	0	---	0.00	30.132 
22:55	55.9	55.9	55.9	83	50.8	0	0	---	0.00	30.132 
23:00	55.7	55.7	55.7	83	50.6	0	0	---	0.00	30.137 
23:05	55.6	55.6	55.6	83	50.5	0	0	---	0.00	30.137 
23:10	55.4	55.4	55.4	83	50.3	0	0	---	0.00	30.137 
23:15	55.3	55.3	55.3	82	49.9	0	1	90	0.00	30.141 
23:20	55.4	55.4	55.4	80	49.3	0	0	---	0.00	30.141 
23:25	55.7	55.7	55.7	79	49.3	0	0	---	0.00	30.141 
23:30	56.0	56.0	56.0	78	49.2	0	0	---	0.00	30.140 
23:35	56.0	56.0	56.0	77	48.9	0	0	---	0.00	30.140 
23:40	56.2	56.2	56.2	77	49.1	0	0	---	0.00	30.140 
23:45	56.0	56.0	56.0	77	48.9	0	0	---	0.00	30.143 
23:50	56.0	56.0	56.0	77	48.9	0	1	90	0.00	30.143 
23:55	55.9	55.9	55.9	77	48.8	0	0	---	0.00	30.143 

CoCoRaHS
IN-AL-39
A2 Web Hosting
Creative Commons License
GoDaddy
search engine by freefind advanced

loaded 2018-11-15 15:42:38 • last modified 2010-11-18 10:43:29
Privacy PolicyDisclaimer
• wx.awcolley.com is powered by PmWiki v.2002016 •
• all content (unless otherwise noted) © 2018 A W Colley